Saturday, October 25, 2014
22:09 UTC
  |  Log In   |  Register Free
Airport Search:

New River Valley Airport
(KPSK)

New River Valley Airport Diagram
No Airport Diagram Available

FAA data valid effective September 18, 2014 - November 13, 2014 (unless otherwise noted).

 
 
 
 
 
 
 
 
 
 
 
 
 
 

Current Aviation Weather for New River Valley Airport (KPSK)

The most recent METAR observation for KPSK was updated at: 2116
METAR Summary (Translated METAR)
KPSK
252055Z AUTO 29008KT 10SM SCT050 SCT060 20/06 A2996 RMK AO2 T02020059
KBCB
252055Z AUTO 28007KT 230V300 10SM SCT060 19/08 A2996 RMK AO2
(13.6 nm NE from KPSK)
KHLX
252055Z AUTO 30008KT 10SM SCT050 18/06 A2998 RMK AO2 T01800056
(23.4 nm SW from KPSK)
TAF Summary (Translated TAF)
KBCB
(13.6 nm NE from KPSK)
251720Z 2518/2618 25008KT P6SM SKC FM252000 27008KT P6SM SCT050 FM260200 27005KT P6SM SKC FM260600 29010G18KT P6SM BKN040 FM261500 29012G22KT P6SM SKC
  Airport Weather Conditions for KPSK

 Current Weather at PSK
68° F
Partly Cloudy
West winds at 9.2 mph
PSK NOAA Radar

Pressure: 29.96 in
Humidity: 39%
Wind: West at 9.2 MPH (8 KT)
Dew Point: 42.6°F
Visibility: 10.00 mi


Airport Weather Forecast for KPSK

Translated METAR and TAF for KPSK
Translated METAR for KPSK (2204 UTC 25 October 2014)
found at http://aviationweather.gov/adds/metars/
 
METAR text: KPSK 252155Z AUTO 28009KT 10SM SCT050 18/07 A2996 RMK AO2 T01820072
Conditions at: KPSK (DUBLIN/NEW RIV , VA, US) observed 2155 UTC 25 October 2014
Temperature: 18.2°C (65°F)
Dewpoint: 7.2°C (45°F) [RH = 49%]
Pressure (altimeter): 29.96 inches Hg (1014.6 mb)
Winds: from the W (280 degrees) at 10 MPH (9 knots; 4.7 m/s)
Visibility: 10 or more miles (16+ km)
Ceiling: at least 12,000 feet AGL
Clouds: scattered clouds at 5000 feet AGL
Weather: automated observation with no human augmentation;
there may or may not be significant weather present at this time
Translated TAF for KPSK

There is no translated TAF available for this airport

Find All Airport Services Find A Hotel Find A Rental Car Find A Golf Course Find A Restaurant $100 Hamburger



FBO's on the Field
FBO Company Facility Photos Services Transportation Aviation Fuel Prices: Prices include tax
Catering Weather Repair Courtesy Rental Type 100LL JetA JetA+ MOGAS 8087
 
New River Valley Airport

This FBO has not yet been rated
FS:Avfuel
Last Updated: Oct-16
Login to update fuel prices
SS:
Contact New River Valley AirportMore FBO Information
 
Add another FBO Facility Photos Catering Weather Repair Courtesy Rental Type 100LL JetA JetA+ MOGAS 8087
Services Transportation Aviation Fuel Prices: Prices include tax


model-print
model-print
model-print
model-print